createdAt,value
2017-09-13T00:00:29.359Z,99394
2017-09-13T00:01:29.223Z,99390
2017-09-13T00:02:28.590Z,99391
2017-09-13T00:03:29.168Z,99378
2017-09-13T00:04:29.661Z,99376
2017-09-13T00:05:30.336Z,99378
2017-09-13T00:06:30.447Z,99376
2017-09-13T00:07:29.936Z,99371
2017-09-13T00:08:30.420Z,99369
2017-09-13T00:09:30.457Z,99364
2017-09-13T00:10:30.618Z,99366
2017-09-13T00:11:28.984Z,99362
2017-09-13T00:12:29.063Z,99386
2017-09-13T00:13:29.395Z,99359
2017-09-13T00:14:30.076Z,99365
2017-09-13T00:15:30.793Z,99347
2017-09-13T00:16:29.909Z,99347
2017-09-13T00:17:30.165Z,99345
2017-09-13T00:18:30.957Z,99351
2017-09-13T00:19:32.045Z,99344
2017-09-13T00:20:30.096Z,99338
2017-09-13T00:21:30.348Z,99333
2017-09-13T00:22:30.389Z,99333
2017-09-13T00:23:29.540Z,99338
2017-09-13T00:24:30.002Z,99327
2017-09-13T00:25:29.952Z,99326
2017-09-13T00:26:31.414Z,99310
2017-09-13T00:27:31.368Z,99306
2017-09-13T00:28:29.828Z,99326
2017-09-13T00:29:29.784Z,99305
2017-09-13T00:30:31.593Z,99308
2017-09-13T00:31:30.150Z,99314
2017-09-13T00:32:30.634Z,99310
2017-09-13T00:33:31.694Z,99306
2017-09-13T00:34:31.823Z,99314
2017-09-13T00:35:30.149Z,99284
2017-09-13T00:36:30.072Z,99279
2017-09-13T00:37:30.429Z,99282
2017-09-13T00:38:31.904Z,99274
2017-09-13T00:39:30.262Z,99275
2017-09-13T00:40:31.204Z,99273
2017-09-13T00:41:30.312Z,99247
2017-09-13T00:42:30.335Z,99244
2017-09-13T00:43:30.650Z,99243
2017-09-13T00:44:31.372Z,99233
2017-09-13T00:45:30.468Z,99247
2017-09-13T00:46:30.634Z,99234
2017-09-13T00:47:30.646Z,99244
2017-09-13T00:48:31.617Z,99236
2017-09-13T00:49:32.078Z,99228
2017-09-13T00:50:30.922Z,99235
2017-09-13T00:51:30.995Z,99227
2017-09-13T00:52:31.962Z,99232
2017-09-13T00:53:32.011Z,99249
2017-09-13T00:54:32.770Z,99210
2017-09-13T00:55:32.970Z,99216
2017-09-13T00:56:32.147Z,99215
2017-09-13T00:57:32.197Z,99221
2017-09-13T00:58:31.274Z,99215
2017-09-13T00:59:31.263Z,99198
2017-09-13T01:00:31.287Z,99194
2017-09-13T01:01:31.620Z,99196
2017-09-13T01:02:33.079Z,99187
2017-09-13T01:03:31.476Z,99177
2017-09-13T01:04:33.228Z,99187
2017-09-13T01:05:32.644Z,99178
2017-09-13T01:06:31.717Z,99180
2017-09-13T01:07:32.950Z,99158
2017-09-13T01:08:31.790Z,99166
2017-09-13T01:09:31.849Z,99161
2017-09-13T01:10:31.886Z,99141
2017-09-13T01:11:31.929Z,99143
2017-09-13T01:12:33.690Z,99149
2017-09-13T01:13:34.080Z,99139
2017-09-13T01:14:32.742Z,99139
2017-09-13T01:15:32.913Z,99127
2017-09-13T01:16:32.879Z,99140
2017-09-13T01:17:32.425Z,99120
2017-09-13T01:18:33.136Z,99115
2017-09-13T01:19:32.651Z,99121
2017-09-13T01:20:33.288Z,99114
2017-09-13T01:21:32.434Z,99110
2017-09-13T01:22:32.509Z,99124
2017-09-13T01:23:34.000Z,99108
2017-09-13T01:24:32.772Z,99112
2017-09-13T01:25:34.067Z,99093
2017-09-13T01:26:34.791Z,99093
2017-09-13T01:27:33.760Z,99083
2017-09-13T01:28:32.877Z,99079
2017-09-13T01:29:35.637Z,99076
2017-09-13T01:30:35.511Z,99104
2017-09-13T01:31:35.854Z,99075
2017-09-13T01:32:33.671Z,99101
2017-09-13T01:33:33.210Z,99092
2017-09-13T01:34:34.170Z,99091
2017-09-13T01:35:34.068Z,99087
2017-09-13T01:36:34.200Z,99093
2017-09-13T01:37:35.220Z,99070
2017-09-13T01:38:34.207Z,99073
2017-09-13T01:39:33.395Z,99061
2017-09-13T01:40:33.378Z,99070
2017-09-13T01:41:36.019Z,99054
2017-09-13T01:42:33.571Z,99050
2017-09-13T01:43:33.899Z,99066
2017-09-13T01:44:33.553Z,99065
2017-09-13T01:45:35.405Z,99058
2017-09-13T01:46:36.746Z,99071
2017-09-13T01:47:35.445Z,99073
2017-09-13T01:48:33.968Z,99056
2017-09-13T01:49:35.856Z,99061
2017-09-13T01:50:35.009Z,99051
2017-09-13T01:51:35.530Z,99053
2017-09-13T01:52:35.668Z,99052
2017-09-13T01:53:35.750Z,99048
2017-09-13T01:54:34.105Z,99051
2017-09-13T01:55:34.773Z,99051
2017-09-13T01:56:34.684Z,99064
2017-09-13T01:57:34.191Z,99068
2017-09-13T01:58:36.112Z,99065
2017-09-13T01:59:34.271Z,99067
2017-09-13T02:00:34.346Z,99058
2017-09-13T02:01:34.687Z,99068
2017-09-13T02:02:34.320Z,99068
2017-09-13T02:03:34.347Z,99069
2017-09-13T02:04:34.404Z,99077
2017-09-13T02:05:36.191Z,99072
2017-09-13T02:06:36.909Z,99070
2017-09-13T02:07:35.057Z,99073
2017-09-13T02:08:34.823Z,99061
2017-09-13T02:09:35.734Z,99067
2017-09-13T02:10:35.839Z,99059
2017-09-13T02:11:35.904Z,99046
2017-09-13T02:12:36.543Z,99064
2017-09-13T02:13:36.964Z,99037
2017-09-13T02:14:36.664Z,99025
2017-09-13T02:15:36.049Z,99006
2017-09-13T02:16:36.829Z,98983
2017-09-13T02:17:35.344Z,98983
2017-09-13T02:18:37.018Z,98974
2017-09-13T02:19:35.585Z,98966
2017-09-13T02:20:36.303Z,98941
2017-09-13T02:21:37.204Z,98968
2017-09-13T02:22:35.460Z,98940
2017-09-13T02:23:36.557Z,98938
2017-09-13T02:24:35.697Z,98938
2017-09-13T02:25:35.996Z,98939
2017-09-13T02:26:36.686Z,98963
2017-09-13T02:27:35.795Z,98976
2017-09-13T02:28:36.879Z,98954
2017-09-13T02:29:37.611Z,98956
2017-09-13T02:30:37.001Z,98945
2017-09-13T02:31:37.397Z,98947
2017-09-13T02:32:37.119Z,98926
2017-09-13T02:33:37.051Z,98917
2017-09-13T02:34:37.900Z,98907
2017-09-13T02:35:37.173Z,98891
2017-09-13T02:36:36.436Z,98895
2017-09-13T02:37:36.628Z,98895
2017-09-13T02:38:36.497Z,98891
2017-09-13T02:39:37.475Z,98888
2017-09-13T02:40:37.174Z,98876
2017-09-13T02:41:36.503Z,98865
2017-09-13T02:42:38.245Z,98875
2017-09-13T02:43:36.801Z,98852
2017-09-13T02:44:36.556Z,98846
2017-09-13T02:45:37.548Z,98864
2017-09-13T02:46:36.599Z,98848
2017-09-13T02:47:38.326Z,98858
2017-09-13T02:48:38.513Z,98850
2017-09-13T02:49:38.810Z,98874
2017-09-13T02:50:38.609Z,98828
2017-09-13T02:51:37.472Z,98839
2017-09-13T02:52:36.957Z,98824
2017-09-13T02:53:38.072Z,98836
2017-09-13T02:54:37.063Z,98840
2017-09-13T02:55:37.409Z,98827
2017-09-13T02:56:37.152Z,98825
2017-09-13T02:57:37.322Z,98822
2017-09-13T02:58:38.928Z,98824
2017-09-13T02:59:37.337Z,98828
2017-09-13T03:00:37.368Z,98815
2017-09-13T03:01:37.637Z,98816
2017-09-13T03:02:37.270Z,98823
2017-09-13T03:03:37.286Z,98812
2017-09-13T03:04:37.300Z,98819
2017-09-13T03:05:37.478Z,98801
2017-09-13T03:06:37.444Z,98809
2017-09-13T03:07:37.837Z,98793
2017-09-13T03:08:38.489Z,98792
2017-09-13T03:09:37.626Z,98794
2017-09-13T03:10:38.683Z,98781
2017-09-13T03:11:38.746Z,98770
2017-09-13T03:12:37.736Z,98778
2017-09-13T03:13:38.172Z,98782
2017-09-13T03:14:37.821Z,98772
2017-09-13T03:15:38.846Z,98783
2017-09-13T03:16:37.896Z,98789
2017-09-13T03:17:39.743Z,98746
2017-09-13T03:18:37.993Z,98768
2017-09-13T03:19:38.354Z,98759
2017-09-13T03:20:38.181Z,98762
2017-09-13T03:21:39.219Z,98746
2017-09-13T03:22:38.195Z,98740
2017-09-13T03:23:38.231Z,98724
2017-09-13T03:24:38.341Z,98741
2017-09-13T03:25:38.597Z,98748
2017-09-13T03:26:38.390Z,98748
2017-09-13T03:28:40.239Z,98732
2017-09-13T03:29:39.525Z,98734
2017-09-13T03:30:40.377Z,98734
2017-09-13T03:31:38.927Z,98730
2017-09-13T03:32:39.780Z,98730
2017-09-13T03:33:38.767Z,98703
2017-09-13T03:34:39.786Z,98723
2017-09-13T03:35:39.809Z,98719
2017-09-13T03:36:38.997Z,98728
2017-09-13T03:37:40.295Z,98710
2017-09-13T03:38:39.940Z,98706
2017-09-13T03:39:38.986Z,98700
2017-09-13T03:40:39.154Z,98707
2017-09-13T03:41:39.187Z,98701
2017-09-13T03:42:40.248Z,98700
2017-09-13T03:43:40.987Z,98687
2017-09-13T03:44:40.940Z,98711
2017-09-13T03:45:39.275Z,98694
2017-09-13T03:46:39.443Z,98687
2017-09-13T03:47:39.535Z,98680
2017-09-13T03:48:39.592Z,98684
2017-09-13T03:49:39.863Z,98680
2017-09-13T03:50:40.613Z,98675
2017-09-13T03:51:39.576Z,98675
2017-09-13T03:52:39.716Z,98668
2017-09-13T03:53:39.832Z,98668
2017-09-13T03:54:39.862Z,98656
2017-09-13T03:55:41.115Z,98671
2017-09-13T03:56:40.807Z,98678
2017-09-13T03:57:40.941Z,98668
2017-09-13T03:58:41.632Z,98653
2017-09-13T03:59:40.031Z,98646
2017-09-13T04:00:40.044Z,98673
2017-09-13T04:01:41.190Z,98647
2017-09-13T04:02:40.162Z,98624
2017-09-13T04:03:41.809Z,98649
2017-09-13T04:04:40.185Z,98630
2017-09-13T04:05:40.216Z,98635
2017-09-13T04:06:41.315Z,98640
2017-09-13T04:07:40.541Z,98642
2017-09-13T04:08:41.240Z,98634
2017-09-13T04:09:41.398Z,98636
2017-09-13T04:10:41.335Z,98629
2017-09-13T04:11:41.347Z,98618
2017-09-13T04:12:40.403Z,98633
2017-09-13T04:13:40.711Z,98612
2017-09-13T04:14:40.469Z,98637
2017-09-13T04:15:42.239Z,98630
2017-09-13T04:16:42.400Z,98608
2017-09-13T04:17:42.421Z,98607
2017-09-13T04:18:41.747Z,98594
2017-09-13T04:19:42.005Z,98608
2017-09-13T04:20:40.750Z,98646
2017-09-13T04:21:42.552Z,98598
2017-09-13T04:22:40.934Z,98597
2017-09-13T04:23:41.821Z,98609
2017-09-13T04:24:40.909Z,98609
2017-09-13T04:25:41.259Z,98609
2017-09-13T04:26:42.799Z,98592
2017-09-13T04:27:41.183Z,98595
2017-09-13T04:28:42.094Z,98592
2017-09-13T04:29:41.221Z,98613
2017-09-13T04:30:43.033Z,98591
2017-09-13T04:31:41.598Z,98617
2017-09-13T04:32:42.440Z,98583
2017-09-13T04:33:41.492Z,98580
2017-09-13T04:34:41.439Z,98569
2017-09-13T04:35:44.579Z,98577
2017-09-13T04:36:41.539Z,98592
2017-09-13T04:37:43.830Z,98574
2017-09-13T04:38:44.315Z,98587
2017-09-13T04:39:41.849Z,98557
2017-09-13T04:40:42.772Z,98579
2017-09-13T04:41:41.813Z,98569
2017-09-13T04:42:42.792Z,98592
2017-09-13T04:43:42.159Z,98573
2017-09-13T04:44:43.632Z,98591
2017-09-13T04:45:43.031Z,98589
2017-09-13T04:46:43.047Z,98594
2017-09-13T04:47:43.103Z,98563
2017-09-13T04:48:43.102Z,98549
2017-09-13T04:49:42.437Z,98560
2017-09-13T04:50:42.980Z,98543
2017-09-13T04:51:43.197Z,98534
2017-09-13T04:52:42.324Z,98554
2017-09-13T04:53:43.370Z,98563
2017-09-13T04:54:42.502Z,98580
2017-09-13T04:55:42.758Z,98562
2017-09-13T04:56:42.616Z,98565
2017-09-13T04:57:42.586Z,98548
2017-09-13T04:58:42.621Z,98554
2017-09-13T04:59:42.723Z,98561
2017-09-13T05:00:44.343Z,98560
2017-09-13T05:01:46.417Z,98595
2017-09-13T05:02:46.111Z,98578
2017-09-13T05:03:42.817Z,98587
2017-09-13T05:04:44.608Z,98559
2017-09-13T05:05:43.840Z,98555
2017-09-13T05:06:42.993Z,98570
2017-09-13T05:07:44.272Z,98572
2017-09-13T05:08:44.818Z,98548
2017-09-13T05:09:44.778Z,98583
2017-09-13T05:10:43.079Z,98547
2017-09-13T05:11:44.836Z,98558
2017-09-13T05:12:45.671Z,98560
2017-09-13T05:13:44.571Z,98548
2017-09-13T05:14:43.538Z,98538
2017-09-13T05:15:45.290Z,98544
2017-09-13T05:16:43.544Z,98537
2017-09-13T05:17:43.574Z,98540
2017-09-13T05:18:43.596Z,98546
2017-09-13T05:19:43.926Z,98548
2017-09-13T05:20:43.768Z,98558
2017-09-13T05:21:51.719Z,98571
2017-09-13T05:22:45.518Z,98532
2017-09-13T05:23:45.600Z,98529
2017-09-13T05:24:44.520Z,98537
2017-09-13T05:25:46.041Z,98563
2017-09-13T05:26:44.974Z,98549
2017-09-13T05:27:44.145Z,98532
2017-09-13T05:28:45.146Z,98539
2017-09-13T05:29:45.249Z,98548
2017-09-13T05:30:44.315Z,98511
2017-09-13T05:31:46.219Z,98531
2017-09-13T05:32:44.289Z,98542
2017-09-13T05:33:44.427Z,98544
2017-09-13T05:34:44.529Z,98554
2017-09-13T05:35:44.502Z,98531
2017-09-13T05:36:44.603Z,98525
2017-09-13T05:37:46.484Z,98530
2017-09-13T05:38:44.606Z,98537
2017-09-13T05:39:44.705Z,98544
2017-09-13T05:40:44.865Z,98526
2017-09-13T05:41:46.618Z,98528
2017-09-13T05:42:44.906Z,98551
2017-09-13T05:43:45.373Z,98548
2017-09-13T05:44:46.013Z,98523
2017-09-13T05:45:45.119Z,98547
2017-09-13T05:46:46.052Z,98528
2017-09-13T05:47:46.963Z,98536
2017-09-13T05:48:52.340Z,98502
2017-09-13T05:49:45.824Z,98504
2017-09-13T05:50:46.393Z,98501
2017-09-13T05:52:49.472Z,98490
2017-09-13T05:53:45.628Z,98516
2017-09-13T05:54:45.735Z,98501
2017-09-13T05:55:47.804Z,98503
2017-09-13T05:56:45.762Z,98498
2017-09-13T05:57:45.844Z,98521
2017-09-13T05:58:46.908Z,98503
2017-09-13T05:59:46.026Z,98511
2017-09-13T06:00:47.087Z,98501
2017-09-13T06:01:48.219Z,98493
2017-09-13T06:02:48.019Z,98503
2017-09-13T06:03:46.326Z,98501
2017-09-13T06:04:47.655Z,98523
2017-09-13T06:05:48.306Z,98514
2017-09-13T06:06:46.690Z,98512
2017-09-13T06:07:46.763Z,98491
2017-09-13T06:08:46.665Z,98523
2017-09-13T06:09:46.638Z,98507
2017-09-13T06:10:46.584Z,98491
2017-09-13T06:11:47.713Z,98500
2017-09-13T06:12:47.973Z,98499
2017-09-13T06:13:46.968Z,98498
2017-09-13T06:14:46.988Z,98500
2017-09-13T06:15:46.990Z,98510
2017-09-13T06:16:48.046Z,98498
2017-09-13T06:17:47.005Z,98515
2017-09-13T06:18:47.137Z,98515
2017-09-13T06:19:48.349Z,98499
2017-09-13T06:20:47.835Z,98500
2017-09-13T06:21:47.324Z,98492
2017-09-13T06:22:49.024Z,98499
2017-09-13T06:23:47.316Z,98525
2017-09-13T06:24:47.387Z,98511
2017-09-13T06:25:55.133Z,98498
2017-09-13T06:26:51.014Z,98520
2017-09-13T06:27:48.679Z,98510
2017-09-13T06:28:47.586Z,98522
2017-09-13T06:29:48.354Z,98502
2017-09-13T06:30:47.798Z,98531
2017-09-13T06:31:49.191Z,98504
2017-09-13T06:32:48.802Z,98506
2017-09-13T06:33:49.242Z,98501
2017-09-13T06:34:49.244Z,98493
2017-09-13T06:35:47.990Z,98512
2017-09-13T06:36:47.957Z,98506
2017-09-13T06:37:49.047Z,98510
2017-09-13T06:38:48.003Z,98524
2017-09-13T06:39:49.093Z,98509
2017-09-13T06:40:49.171Z,98525
2017-09-13T06:41:49.886Z,98534
2017-09-13T06:42:49.878Z,98510
2017-09-13T06:43:50.151Z,98530
2017-09-13T06:44:48.422Z,98534
2017-09-13T06:45:48.406Z,98545
2017-09-13T06:46:51.258Z,98525
2017-09-13T06:47:50.197Z,98522
2017-09-13T06:48:49.591Z,98507
2017-09-13T06:49:49.011Z,98536
2017-09-13T06:50:49.607Z,98519
2017-09-13T06:51:49.697Z,98495
2017-09-13T06:52:50.430Z,98512
2017-09-13T06:53:51.563Z,98500
2017-09-13T06:54:48.725Z,98491
2017-09-13T06:55:49.137Z,98502
2017-09-13T06:56:49.723Z,98499
2017-09-13T06:57:49.797Z,98487
2017-09-13T06:58:51.064Z,98500
2017-09-13T06:59:48.923Z,98503
2017-09-13T07:00:49.995Z,98508
2017-09-13T07:01:49.441Z,98514
2017-09-13T07:02:49.206Z,98518
2017-09-13T07:03:49.148Z,98492
2017-09-13T07:04:49.178Z,98492
2017-09-13T07:05:51.601Z,98521
2017-09-13T07:06:50.939Z,98516
2017-09-13T07:07:49.595Z,98491
2017-09-13T07:08:49.452Z,98518
2017-09-13T07:09:50.408Z,98509
2017-09-13T07:10:50.382Z,98496
2017-09-13T07:11:50.244Z,98513
2017-09-13T07:12:51.422Z,98514
2017-09-13T07:13:50.988Z,98501
2017-09-13T07:14:50.706Z,98512
2017-09-13T07:15:49.814Z,98501
2017-09-13T07:16:50.964Z,98501
2017-09-13T07:17:50.968Z,98489
2017-09-13T07:18:50.127Z,98516
2017-09-13T07:19:52.145Z,98506
2017-09-13T07:20:51.632Z,98496
2017-09-13T07:21:50.833Z,98483
2017-09-13T07:22:50.000Z,98513
2017-09-13T07:23:52.048Z,98512
2017-09-13T07:24:52.573Z,98487
2017-09-13T07:25:51.510Z,98481
2017-09-13T07:27:03.881Z,98486
2017-09-13T07:27:52.258Z,98469
2017-09-13T07:28:51.994Z,98493
2017-09-13T07:29:50.511Z,98511
2017-09-13T07:30:52.088Z,98484
2017-09-13T07:31:53.196Z,98488
2017-09-13T07:32:52.063Z,98492
2017-09-13T07:33:52.315Z,98494
2017-09-13T07:34:52.983Z,98495
2017-09-13T07:35:52.376Z,98480
2017-09-13T07:36:53.184Z,98502
2017-09-13T07:37:52.649Z,98498
2017-09-13T07:38:53.775Z,98498
2017-09-13T07:39:52.516Z,98501
2017-09-13T07:40:51.983Z,98544
2017-09-13T07:41:50.956Z,98500
2017-09-13T07:42:51.949Z,98536
2017-09-13T07:43:52.096Z,98516
2017-09-13T07:44:51.079Z,98497
2017-09-13T07:45:51.346Z,98479
2017-09-13T07:46:52.915Z,98489
2017-09-13T07:47:51.404Z,98504
2017-09-13T07:48:51.328Z,98503
2017-09-13T07:49:52.516Z,98485
2017-09-13T07:50:53.836Z,98504
2017-09-13T07:51:52.642Z,98531
2017-09-13T07:52:53.365Z,98503
2017-09-13T07:53:55.121Z,98508
2017-09-13T07:54:51.618Z,98512
2017-09-13T07:55:52.426Z,98514
2017-09-13T07:56:52.343Z,98528
2017-09-13T07:57:53.861Z,98501
2017-09-13T07:58:51.883Z,98490
2017-09-13T07:59:52.754Z,98520
2017-09-13T08:00:54.886Z,98498
2017-09-13T08:01:54.029Z,98495
2017-09-13T08:02:55.584Z,98508
2017-09-13T08:03:52.255Z,98499
2017-09-13T08:04:53.217Z,98506
2017-09-13T08:05:52.312Z,98506
2017-09-13T08:06:52.452Z,98502
2017-09-13T08:11:43.669Z,98535
2017-09-13T08:12:43.288Z,98526
2017-09-13T08:13:42.846Z,98534
2017-09-13T08:14:44.617Z,98500
2017-09-13T08:15:43.778Z,98512
2017-09-13T08:16:43.964Z,98496
2017-09-13T08:17:44.648Z,98538
2017-09-13T08:18:43.004Z,98544
2017-09-13T08:19:45.871Z,98548
2017-09-13T08:20:43.013Z,98522
2017-09-13T08:21:44.439Z,98540
2017-09-13T08:22:45.281Z,98540
2017-09-13T08:23:43.289Z,98536
2017-09-13T08:24:43.329Z,98542
2017-09-13T08:25:44.946Z,98537
2017-09-13T08:26:44.412Z,98526
2017-09-13T08:27:45.064Z,98515
2017-09-13T08:28:44.393Z,98533
2017-09-13T08:29:45.183Z,98538
2017-09-13T08:30:43.640Z,98530
2017-09-13T08:31:44.242Z,98527
2017-09-13T08:32:45.528Z,98526
2017-09-13T08:33:43.751Z,98536
2017-09-13T08:34:44.135Z,98536
2017-09-13T08:39:20.945Z,98531
2017-09-13T08:40:21.358Z,98535
2017-09-13T08:41:20.948Z,98530
2017-09-13T08:42:19.804Z,98578
2017-09-13T08:43:20.512Z,98525
2017-09-13T08:44:21.641Z,98496
2017-09-13T08:45:21.162Z,98523
2017-09-13T08:46:19.849Z,98536
2017-09-13T08:47:21.615Z,98530
2017-09-13T08:48:20.510Z,98551
2017-09-13T08:49:20.047Z,98534
2017-09-13T08:50:20.616Z,98518
2017-09-13T08:51:23.118Z,98535
2017-09-13T08:52:21.306Z,98525
2017-09-13T08:53:20.860Z,98567
2017-09-13T08:54:21.381Z,98520
2017-09-13T08:55:21.470Z,98545
2017-09-13T08:56:21.874Z,98549
2017-09-13T08:57:22.942Z,98523
2017-09-13T08:58:22.749Z,98536
2017-09-13T08:59:21.892Z,98529
2017-09-13T09:00:20.666Z,98548
2017-09-13T09:01:23.035Z,98552
2017-09-13T09:02:22.114Z,98554
2017-09-13T09:03:20.827Z,98559
2017-09-13T09:04:20.927Z,98555
2017-09-13T09:05:21.039Z,98538
2017-09-13T09:06:22.758Z,98543
2017-09-13T09:07:20.965Z,98560
2017-09-13T09:08:21.457Z,98563
2017-09-13T09:09:22.224Z,98573
2017-09-13T09:10:22.993Z,98556
2017-09-13T09:11:21.248Z,98550
2017-09-13T09:12:22.211Z,98556
2017-09-13T09:13:22.933Z,98579
2017-09-13T09:14:23.571Z,98579
2017-09-13T09:15:21.389Z,98563
2017-09-13T09:16:22.582Z,98572
2017-09-13T09:17:22.524Z,98569
2017-09-13T09:18:24.241Z,98573
2017-09-13T09:19:23.511Z,98589
2017-09-13T09:20:24.082Z,98570
2017-09-13T09:21:22.267Z,98571
2017-09-13T09:22:23.301Z,98571
2017-09-13T09:23:24.560Z,98584
2017-09-13T09:24:22.202Z,98572
2017-09-13T09:25:23.614Z,98573
2017-09-13T09:26:25.316Z,98592
2017-09-13T09:27:22.103Z,98563
2017-09-13T09:28:24.245Z,98582
2017-09-13T09:29:22.157Z,98556
2017-09-13T09:30:22.249Z,98566
2017-09-13T09:31:23.976Z,98573
2017-09-13T09:32:23.065Z,98552
2017-09-13T09:33:23.198Z,98557
2017-09-13T09:34:22.762Z,98564
2017-09-13T09:35:23.208Z,98562
2017-09-13T09:36:24.134Z,98564
2017-09-13T09:37:23.382Z,98559
2017-09-13T09:38:25.092Z,98572
2017-09-13T09:39:23.081Z,98566
2017-09-13T09:40:23.396Z,98563
2017-09-13T09:41:23.144Z,98561
2017-09-13T09:42:22.564Z,98562
2017-09-13T09:43:24.745Z,98588
2017-09-13T09:44:23.865Z,98573
2017-09-13T09:45:23.758Z,98567
2017-09-13T09:46:24.946Z,98569
2017-09-13T09:47:23.744Z,98560
2017-09-13T09:48:23.623Z,98571
2017-09-13T09:49:23.332Z,98579
2017-09-13T09:50:24.441Z,98585
2017-09-13T09:51:27.096Z,98580
2017-09-13T09:52:24.332Z,98572
2017-09-13T09:53:23.173Z,98601
2017-09-13T09:54:24.095Z,98598
2017-09-13T09:55:24.626Z,98585
2017-09-13T09:56:23.557Z,98582
2017-09-13T09:57:23.351Z,98579
2017-09-13T09:58:25.545Z,98577
2017-09-13T09:59:23.354Z,98590
2017-09-13T10:00:25.145Z,98582
2017-09-13T10:01:25.311Z,98594
2017-09-13T10:02:25.698Z,98599
2017-09-13T10:03:28.405Z,98584
2017-09-13T10:04:24.699Z,98593
2017-09-13T10:05:23.661Z,98643
2017-09-13T10:06:25.308Z,98582
2017-09-13T10:07:25.352Z,98595
2017-09-13T10:08:25.794Z,98602
2017-09-13T10:09:25.598Z,98600
2017-09-13T10:10:25.628Z,98615
2017-09-13T10:11:24.213Z,98626
2017-09-13T10:12:27.116Z,98594
2017-09-13T10:13:26.416Z,98583
2017-09-13T10:14:25.084Z,98613
2017-09-13T10:15:25.954Z,98583
2017-09-13T10:16:27.053Z,98603
2017-09-13T10:17:24.834Z,98625
2017-09-13T10:18:25.426Z,98588
2017-09-13T10:19:25.941Z,98583
2017-09-13T10:20:25.660Z,98598
2017-09-13T10:21:25.528Z,98604
2017-09-13T10:22:26.444Z,98610
2017-09-13T10:23:24.611Z,98591
2017-09-13T10:24:24.739Z,98608
2017-09-13T10:25:25.204Z,98607
2017-09-13T10:26:27.733Z,98615
2017-09-13T10:27:24.634Z,98596
2017-09-13T10:28:26.380Z,98604
2017-09-13T10:29:26.363Z,98611
2017-09-13T10:30:24.758Z,98605
2017-09-13T10:31:24.803Z,98609
2017-09-13T10:32:26.057Z,98598
2017-09-13T10:33:25.944Z,98600
2017-09-13T10:34:26.371Z,98604
2017-09-13T10:35:25.510Z,98633
2017-09-13T10:36:25.017Z,98611
2017-09-13T10:37:26.755Z,98616
2017-09-13T10:38:26.011Z,98618
2017-09-13T10:39:27.410Z,98611
2017-09-13T10:40:25.212Z,98622
2017-09-13T10:41:26.255Z,98662
2017-09-13T10:42:26.921Z,98612
2017-09-13T10:43:25.391Z,98630
2017-09-13T10:44:26.196Z,98628
2017-09-13T10:45:25.329Z,98624
2017-09-13T10:46:27.135Z,98625
2017-09-13T10:47:25.538Z,98634
2017-09-13T10:48:25.455Z,98633
2017-09-13T10:49:25.648Z,98640
2017-09-13T10:50:27.690Z,98623
2017-09-13T10:51:25.729Z,98637
2017-09-13T10:52:25.802Z,98642
2017-09-13T10:53:25.786Z,98653
2017-09-13T10:54:25.860Z,98707
2017-09-13T10:55:26.852Z,98655
2017-09-13T10:56:27.143Z,98663
2017-09-13T10:57:26.167Z,98667
2017-09-13T10:58:26.333Z,98653
2017-09-13T10:59:26.289Z,98635
2017-09-13T11:00:26.353Z,98662
2017-09-13T11:01:27.305Z,98665
2017-09-13T11:02:28.012Z,98680
2017-09-13T11:03:27.692Z,98683
2017-09-13T11:04:29.138Z,98661
2017-09-13T11:05:26.683Z,98648
2017-09-13T11:06:28.090Z,98696
2017-09-13T11:07:28.215Z,98657
2017-09-13T11:08:28.071Z,98659
2017-09-13T11:09:26.718Z,98665
2017-09-13T11:10:30.810Z,98656
2017-09-13T11:11:28.547Z,98677
2017-09-13T11:12:28.597Z,98678
2017-09-13T11:13:27.442Z,98663
2017-09-13T11:14:27.356Z,98688
2017-09-13T11:15:28.837Z,98673
2017-09-13T11:16:28.806Z,98669
2017-09-13T11:17:27.237Z,98674
2017-09-13T11:18:28.120Z,98675
2017-09-13T11:19:28.350Z,98650
2017-09-13T11:20:28.422Z,98667
2017-09-13T11:21:27.390Z,98669
2017-09-13T11:22:28.473Z,98682
2017-09-13T11:23:27.433Z,98681
2017-09-13T11:24:29.325Z,98712
2017-09-13T11:25:28.694Z,98688
2017-09-13T11:26:28.802Z,98678
2017-09-13T11:27:28.736Z,98657
2017-09-13T11:28:27.677Z,98694
2017-09-13T11:29:29.448Z,98676
2017-09-13T11:30:27.774Z,98673
2017-09-13T11:31:27.789Z,98732
2017-09-13T11:32:28.176Z,98727
2017-09-13T11:33:27.891Z,98765
2017-09-13T11:34:28.061Z,98688
2017-09-13T11:35:29.253Z,98705
2017-09-13T11:36:30.624Z,98704
2017-09-13T11:37:28.220Z,98693
2017-09-13T11:38:28.966Z,98702
2017-09-13T11:39:29.009Z,98691
2017-09-13T11:40:28.904Z,98723
2017-09-13T11:41:28.394Z,98691
2017-09-13T11:42:29.371Z,98721
2017-09-13T11:43:28.383Z,98709
2017-09-13T11:44:29.872Z,98724
2017-09-13T11:45:29.556Z,98733
2017-09-13T11:46:29.480Z,98716
2017-09-13T11:47:30.279Z,98735
2017-09-13T11:48:30.432Z,98721
2017-09-13T11:49:28.664Z,98753
2017-09-13T11:50:28.999Z,98709
2017-09-13T11:51:30.603Z,98719
2017-09-13T11:52:30.222Z,98730
2017-09-13T11:53:30.574Z,98719
2017-09-13T11:54:28.961Z,98726
2017-09-13T11:55:30.829Z,98736
2017-09-13T11:56:31.177Z,98705
2017-09-13T11:57:29.272Z,98740
2017-09-13T11:58:30.679Z,98737
2017-09-13T11:59:31.047Z,98727
2017-09-13T12:00:29.449Z,98765
2017-09-13T12:01:29.512Z,98752
2017-09-13T12:02:31.480Z,98742
2017-09-13T12:03:29.506Z,98754
2017-09-13T12:04:30.662Z,98739
2017-09-13T12:05:31.177Z,98752
2017-09-13T12:06:30.780Z,98742
2017-09-13T12:07:30.256Z,98738
2017-09-13T12:08:30.066Z,98750
2017-09-13T12:09:31.639Z,98761
2017-09-13T12:10:30.924Z,98756
2017-09-13T12:11:29.970Z,98762
2017-09-13T12:12:31.047Z,98753
2017-09-13T12:13:32.677Z,98747
2017-09-13T12:14:31.498Z,98756
2017-09-13T12:15:30.934Z,98747
2017-09-13T12:16:31.389Z,98755
2017-09-13T12:17:31.639Z,98751
2017-09-13T12:18:32.689Z,98759
2017-09-13T12:19:32.608Z,98765
2017-09-13T12:20:33.919Z,98756
2017-09-13T12:21:31.202Z,98775
2017-09-13T12:22:33.042Z,98761
2017-09-13T12:23:33.496Z,98779
2017-09-13T12:24:31.275Z,98745
2017-09-13T12:25:33.706Z,98750
2017-09-13T12:26:30.934Z,98778
2017-09-13T12:27:30.728Z,98761
2017-09-13T12:28:30.804Z,98764
2017-09-13T12:29:30.858Z,98755
2017-09-13T12:30:31.523Z,98758
2017-09-13T12:31:31.884Z,98755
2017-09-13T12:32:31.304Z,98765
2017-09-13T12:33:31.648Z,98761
2017-09-13T12:34:31.833Z,98763
2017-09-13T12:35:31.151Z,98761
2017-09-13T12:36:31.868Z,98795
2017-09-13T12:37:31.238Z,98761
2017-09-13T12:38:31.632Z,98766
2017-09-13T12:39:32.838Z,98773
2017-09-13T12:40:31.993Z,98769
2017-09-13T12:41:32.014Z,98772
2017-09-13T12:42:34.869Z,98787
2017-09-13T12:43:36.549Z,98794
2017-09-13T12:44:33.534Z,98773
2017-09-13T12:45:33.251Z,98771
2017-09-13T12:46:33.074Z,98795
2017-09-13T12:47:34.928Z,98785
2017-09-13T12:48:34.842Z,98792
2017-09-13T12:49:33.885Z,98782
2017-09-13T12:50:32.839Z,98774
2017-09-13T12:51:33.527Z,98781
2017-09-13T12:52:32.879Z,98784
2017-09-13T12:53:35.466Z,98793
2017-09-13T12:54:33.202Z,98795
2017-09-13T12:55:35.313Z,98790
2017-09-13T12:56:33.845Z,98801
2017-09-13T12:57:32.845Z,98795
2017-09-13T12:58:32.355Z,98790
2017-09-13T12:59:32.986Z,98798
2017-09-13T13:00:33.556Z,98799
2017-09-13T13:01:33.991Z,98794
2017-09-13T13:02:33.609Z,98804